Decoded Metar for SAAR (ROSARIO in ARGENTINA) (IATA:ROS) | Meteo·Mobile Aviation Weather
aviador You're here:

SAAR Decoded Metar

ROSARIO in ARGENTINA
Report Time2019-01-20 10:00:00
UTC Time2019-01-20 10:51:41
Flight Rules vfr VFR
Wind050° at 06 kt
W.Decomp.*RWY 02: 4.9 kt HW 3.4 kt RCW
W.Rank050° ranks 3
Current wind is below 050° avg. (6.8)
Visibility9999 m
Phenomena:N/A
Clouds:N/A
Expected CloudBase > 1,200 ft AGL from Temp-Dew spread
CeilingNone
Temp19°C (ISA +4)
Dew Point16°C (83% RH)
AAT18.8°C
QNH1017 hPa
Density Alt676 ft
Elevation82 ft
Report Wrong Elevation
Raw Report
METAR SAAR 201000Z 05006KT CAVOK 19/16 Q1017=

Extra information for SAAR:More info

Metar Taf Metar & Taf Last 4 Metars F.Rules Stats Wind Profile Meteogram Temp Stats Airport Information Weather charts Add Link Nearby VenuesMetar ALERT Operation Metar Decoded Social comments